Time;durP1;ratioP1;P1;durP2;ratioP2;P2;SDS_P1;SDS_P2;PMS_P1;PMS_P2;Temp;Humidity;BMP_temperature;BMP_pressure;BME280_temperature;BME280_humidity;BME280_pressure;Samples;Min_cycle;Max_cycle;Signal;HPM_P1;HPM_P2
2023/10/08 00:02:22;;;;;;;12.68;4.25;;;19.20;99.90;;;;;;6240547;23;20286;-74
2023/10/08 00:04:50;;;;;;;12.48;5.15;;;19.20;99.90;;;;;;6243017;23;20030;-74
2023/10/08 00:07:21;;;;;;;13.60;5.20;;;19.20;99.90;;;;;;6242228;23;20034;-74
2023/10/08 00:09:47;;;;;;;13.80;5.65;;;19.20;99.90;;;;;;6243010;23;20042;-74
2023/10/08 00:12:13;;;;;;;14.15;4.60;;;19.20;99.90;;;;;;6242244;23;20087;-74
2023/10/08 00:14:44;;;;;;;17.23;4.97;;;19.20;99.90;;;;;;6242718;23;20031;-74
2023/10/08 00:17:11;;;;;;;13.73;4.80;;;19.20;99.90;;;;;;6241785;23;20444;-74
2023/10/08 00:19:38;;;;;;;15.20;5.10;;;19.10;99.90;;;;;;6242956;23;20342;-74
2023/10/08 00:22:06;;;;;;;14.48;5.80;;;19.10;99.90;;;;;;6242159;23;20004;-74
2023/10/08 00:24:33;;;;;;;15.57;4.47;;;19.10;99.90;;;;;;6242996;23;20094;-74
2023/10/08 00:27:00;;;;;;;11.88;5.07;;;19.10;99.90;;;;;;6242532;23;20091;-74
2023/10/08 00:29:26;;;;;;;13.88;5.70;;;19.00;99.90;;;;;;6242674;23;20027;-74
2023/10/08 00:31:56;;;;;;;20.80;5.78;;;19.00;99.90;;;;;;6241694;23;20019;-74
2023/10/08 00:34:22;;;;;;;14.90;5.13;;;19.00;99.90;;;;;;6215626;23;20004;-74
2023/10/08 00:36:48;;;;;;;15.27;5.10;;;19.00;99.90;;;;;;6242611;23;20058;-73
2023/10/08 00:39:22;;;;;;;13.55;5.20;;;19.00;99.90;;;;;;6241930;23;20000;-74
2023/10/08 00:41:49;;;;;;;15.32;5.47;;;19.00;99.90;;;;;;6242442;23;20012;-74
2023/10/08 00:44:28;;;;;;;15.80;4.50;;;19.00;99.90;;;;;;6242253;23;20000;-74
2023/10/08 00:46:56;;;;;;;14.93;4.85;;;19.00;99.90;;;;;;6241866;23;20006;-75
2023/10/08 00:49:31;;;;;;;14.95;5.72;;;19.00;99.90;;;;;;6242420;23;20776;-74
2023/10/08 00:57:29;;;;;;;17.42;4.90;;;19.00;99.90;;;;;;6242192;23;20014;-74
2023/10/08 00:59:56;;;;;;;19.20;6.40;;;18.90;99.90;;;;;;6241783;23;20422;-74
2023/10/08 01:02:27;;;;;;;14.80;5.90;;;19.00;99.90;;;;;;6242044;23;20388;-74
2023/10/08 01:04:54;;;;;;;17.90;5.15;;;18.90;99.90;;;;;;6242236;23;20483;-74
2023/10/08 01:07:20;;;;;;;16.10;5.50;;;18.90;99.90;;;;;;6241843;23;20322;-74
2023/10/08 01:10:00;;;;;;;16.58;5.60;;;18.90;99.90;;;;;;6242304;23;20447;-74
2023/10/08 01:12:34;;;;;;;26.17;6.80;;;19.00;99.90;;;;;;6215236;23;20008;-74
2023/10/08 01:17:52;;;;;;;21.88;6.00;;;18.90;99.90;;;;;;6242427;23;20126;-74
2023/10/08 01:20:49;;;;;;;18.83;5.70;;;18.90;99.90;;;;;;6215073;23;20376;-74
2023/10/08 01:23:16;;;;;;;13.88;5.50;;;18.90;99.90;;;;;;6215031;23;20008;-74
2023/10/08 01:25:43;;;;;;;14.50;4.78;;;18.80;99.90;;;;;;6242273;23;20015;-74
2023/10/08 01:28:20;;;;;;;17.77;5.35;;;18.90;99.90;;;;;;6241570;23;20050;-74
2023/10/08 01:30:47;;;;;;;15.95;5.85;;;18.90;99.90;;;;;;6241693;23;20080;-74
2023/10/08 01:33:20;;;;;;;16.25;6.97;;;18.90;99.90;;;;;;6241660;23;20012;-74
2023/10/08 01:35:48;;;;;;;22.35;8.57;;;18.90;99.90;;;;;;6242417;23;20004;-74
2023/10/08 01:38:14;;;;;;;31.88;14.18;;;18.90;99.90;;;;;;6241664;23;20038;-74
2023/10/08 01:40:42;;;;;;;35.72;18.55;;;18.90;99.90;;;;;;6242269;23;20016;-75
2023/10/08 01:43:10;;;;;;;37.88;20.33;;;18.90;99.90;;;;;;6241760;23;20058;-74
2023/10/08 01:45:40;;;;;;;45.50;23.38;;;18.90;99.90;;;;;;6241958;23;20052;-74
2023/10/08 01:48:09;;;;;;;59.13;25.23;;;18.90;99.90;;;;;;6241705;23;20600;-74
2023/10/08 01:50:35;;;;;;;42.03;24.55;;;18.90;99.90;;;;;;6242287;23;20326;-74
2023/10/08 01:53:01;;;;;;;40.50;23.13;;;18.90;99.90;;;;;;6241727;23;20030;-74
2023/10/08 01:55:27;;;;;;;41.15;22.23;;;18.90;99.90;;;;;;6242442;23;20059;-75
2023/10/08 01:57:52;;;;;;;33.33;19.15;;;18.80;99.90;;;;;;6214217;23;20448;-74
2023/10/08 02:00:22;;;;;;;29.55;15.68;;;18.90;99.90;;;;;;6241692;23;20011;-74
2023/10/08 02:02:51;;;;;;;28.25;12.20;;;18.80;99.90;;;;;;6241774;23;20073;-74
2023/10/08 02:05:18;;;;;;;26.55;10.57;;;18.80;99.90;;;;;;6241673;23;20012;-74
2023/10/08 02:07:45;;;;;;;24.45;9.52;;;18.70;99.90;;;;;;6241506;23;20422;-74
2023/10/08 02:10:11;;;;;;;20.02;8.30;;;18.80;99.90;;;;;;6241492;23;20004;-74
2023/10/08 02:12:37;;;;;;;17.23;7.47;;;18.80;99.90;;;;;;6241248;23;20044;-74
2023/10/08 02:15:04;;;;;;;19.17;8.40;;;18.80;99.90;;;;;;6241685;23;19996;-74
2023/10/08 02:17:29;;;;;;;22.02;7.85;;;18.70;99.90;;;;;;6241767;23;20000;-74
2023/10/08 02:19:55;;;;;;;17.35;7.55;;;18.80;99.90;;;;;;6241643;23;20303;-74
2023/10/08 02:22:20;;;;;;;16.77;6.78;;;18.70;99.90;;;;;;6241433;23;20306;-74
2023/10/08 02:24:48;;;;;;;16.38;6.38;;;18.80;99.90;;;;;;6214479;23;20054;-74
2023/10/08 02:27:15;;;;;;;22.08;7.15;;;18.70;99.90;;;;;;6213768;23;20011;-74
2023/10/08 02:29:41;;;;;;;20.60;6.93;;;18.70;99.90;;;;;;6214711;23;20008;-74
2023/10/08 02:32:07;;;;;;;15.88;7.20;;;18.70;99.90;;;;;;6240858;23;20017;-74
2023/10/08 02:34:33;;;;;;;15.75;6.22;;;18.70;99.90;;;;;;6241578;23;19996;-74
2023/10/08 02:36:59;;;;;;;15.00;7.25;;;18.60;99.90;;;;;;6241413;23;20062;-74
2023/10/08 02:39:27;;;;;;;13.38;6.32;;;18.60;99.90;;;;;;6241113;23;19996;-74
2023/10/08 02:41:59;;;;;;;13.63;6.93;;;18.70;99.90;;;;;;6240653;23;20020;-74
2023/10/08 02:44:24;;;;;;;16.90;6.90;;;18.60;99.90;;;;;;6241001;23;20491;-74
2023/10/08 02:46:51;;;;;;;15.00;7.63;;;18.60;99.90;;;;;;6241389;23;20000;-74
2023/10/08 02:49:20;;;;;;;16.48;6.43;;;18.60;99.90;;;;;;6240631;23;20083;-74
2023/10/08 02:51:50;;;;;;;14.77;6.05;;;18.60;99.90;;;;;;6241387;23;20491;-74
2023/10/08 02:54:20;;;;;;;17.60;7.30;;;18.60;99.90;;;;;;6241019;23;20058;-74
2023/10/08 02:56:47;;;;;;;14.63;7.50;;;18.60;99.90;;;;;;6241073;23;20035;-74
2023/10/08 02:59:13;;;;;;;20.42;7.82;;;18.50;99.90;;;;;;6240393;23;20001;-74
2023/10/08 03:01:42;;;;;;;16.48;7.40;;;18.50;99.90;;;;;;6241315;23;20067;-74
2023/10/08 03:04:17;;;;;;;14.52;6.90;;;18.50;99.90;;;;;;6240897;23;20115;-74
2023/10/08 03:06:43;;;;;;;16.65;6.75;;;18.50;99.90;;;;;;6241437;23;20138;-74
2023/10/08 03:09:08;;;;;;;16.40;7.60;;;18.50;99.90;;;;;;6240794;23;20023;-74
2023/10/08 03:11:37;;;;;;;19.88;8.93;;;18.50;99.90;;;;;;6241255;23;20080;-74
2023/10/08 03:14:03;;;;;;;16.52;8.25;;;18.50;99.90;;;;;;6240772;23;20438;-74
2023/10/08 03:16:33;;;;;;;14.45;7.30;;;18.50;99.90;;;;;;6241253;23;20004;-75
2023/10/08 03:19:00;;;;;;;13.98;6.75;;;18.40;99.90;;;;;;6241150;23;20004;-74
2023/10/08 03:24:12;;;;;;;9.68;6.40;;;18.40;99.90;;;;;;6251725;23;20027;-74
2023/10/08 03:26:39;;;;;;;15.57;7.35;;;18.40;99.90;;;;;;6214002;23;20330;-74
2023/10/08 03:29:08;;;;;;;17.27;8.38;;;18.40;99.90;;;;;;6214176;23;20369;-74
2023/10/08 03:34:13;;;;;;;10.50;6.28;;;18.40;99.90;;;;;;6250293;23;20115;-74
2023/10/08 03:36:44;;;;;;;17.50;7.35;;;18.40;99.90;;;;;;6240604;23;20055;-74
2023/10/08 03:39:13;;;;;;;13.95;6.20;;;18.40;99.90;;;;;;6241909;23;20364;-74
2023/10/08 03:41:40;;;;;;;17.50;7.95;;;18.40;99.90;;;;;;6241570;23;20085;-74
2023/10/08 03:44:13;;;;;;;18.80;7.30;;;18.50;99.90;;;;;;6241306;23;20076;-74
2023/10/08 03:46:42;;;;;;;15.65;6.45;;;18.40;99.90;;;;;;6242908;23;20487;-74
2023/10/08 03:51:46;;;;;;;18.90;7.63;;;18.40;99.90;;;;;;6253332;23;20014;-74
2023/10/08 03:57:17;;;;;;;18.80;8.20;;;18.40;99.90;;;;;;6150531;23;20355;-74
2023/10/08 03:59:43;;;;;;;12.35;7.57;;;18.40;99.90;;;;;;6149942;23;20312;-74
2023/10/08 04:02:21;;;;;;;17.77;7.72;;;18.40;99.90;;;;;;6149629;23;20025;-74
2023/10/08 04:05:21;;;;;;;20.42;8.02;;;18.30;99.90;;;;;;6150017;23;20009;-74
2023/10/08 04:08:04;;;;;;;18.17;7.88;;;18.30;99.90;;;;;;6147311;23;20013;-74
2023/10/08 04:11:07;;;;;;;15.57;7.82;;;18.40;99.90;;;;;;6149338;23;20084;-74
2023/10/08 04:13:24;;;;;;;17.60;7.85;;;18.30;99.90;;;;;;6149769;23;20033;-74
2023/10/08 04:15:50;;;;;;;21.10;9.07;;;18.40;99.90;;;;;;6150000;23;20335;-74
2023/10/08 04:18:15;;;;;;;14.35;8.15;;;18.40;99.90;;;;;;6150013;23;20064;-74
2023/10/08 04:21:00;;;;;;;14.38;8.98;;;18.40;99.90;;;;;;6149654;23;20036;-74
2023/10/08 04:23:25;;;;;;;17.05;9.38;;;18.40;99.90;;;;;;6149559;23;20006;-74
2023/10/08 04:25:54;;;;;;;19.92;8.93;;;18.30;99.90;;;;;;6150066;23;20009;-75
2023/10/08 04:28:20;;;;;;;18.27;8.43;;;18.30;99.90;;;;;;6149572;23;20012;-74
2023/10/08 04:30:53;;;;;;;19.85;9.48;;;18.30;99.90;;;;;;6149936;23;20033;-74
2023/10/08 04:33:19;;;;;;;16.17;7.55;;;18.30;99.90;;;;;;6191010;23;20004;-74
2023/10/08 04:35:48;;;;;;;18.73;9.45;;;18.30;99.90;;;;;;6215917;23;20057;-74
2023/10/08 04:38:28;;;;;;;16.38;8.02;;;18.30;99.90;;;;;;6241864;23;20302;-74
2023/10/08 04:40:54;;;;;;;18.15;8.90;;;18.30;99.90;;;;;;6242257;23;20012;-74
2023/10/08 04:43:30;;;;;;;18.15;8.27;;;18.30;99.90;;;;;;6242577;23;20015;-74
2023/10/08 04:46:04;;;;;;;16.80;8.82;;;18.30;99.90;;;;;;6242370;23;20395;-74
2023/10/08 04:48:32;;;;;;;15.23;8.98;;;18.30;99.90;;;;;;6242563;23;20079;-74
2023/10/08 04:50:58;;;;;;;18.67;9.32;;;18.40;99.90;;;;;;6242389;23;20000;-74
2023/10/08 04:53:32;;;;;;;16.30;8.40;;;18.30;99.90;;;;;;6241781;23;20005;-74
2023/10/08 04:56:13;;;;;;;19.08;8.40;;;18.30;99.90;;;;;;6242121;23;20257;-74
2023/10/08 04:58:46;;;;;;;23.25;9.13;;;18.30;99.90;;;;;;6242474;23;20000;-74
2023/10/08 05:01:37;;;;;;;16.30;6.95;;;18.20;99.90;;;;;;6242002;23;20010;-74
2023/10/08 05:11:56;;;;;;;16.75;6.55;;;18.00;99.90;;;;;;6252989;23;20022;-74
2023/10/08 05:17:21;;;;;;;15.55;6.03;;;17.90;99.90;;;;;;6252355;23;20008;-74
2023/10/08 05:19:55;;;;;;;14.10;5.30;;;17.80;99.90;;;;;;6242135;23;20010;-74
2023/10/08 05:35:48;;;;;;;14.27;5.25;;;17.30;99.90;;;;;;6242475;23;20005;-75
2023/10/08 05:47:06;;;;;;;7.35;4.60;;;17.10;99.90;;;;;;6248488;23;20024;-74
2023/10/08 05:49:25;;;;;;;10.60;4.45;;;17.00;99.90;;;;;;6226807;23;20012;-74
2023/10/08 06:15:48;;;;;;;7.78;4.15;;;16.50;99.90;;;;;;6241716;23;20015;-74
2023/10/08 06:18:19;;;;;;;12.63;4.53;;;16.50;99.90;;;;;;6241416;23;20000;-74
2023/10/08 06:20:46;;;;;;;10.65;2.90;;;16.40;99.90;;;;;;6241330;23;19997;-74
2023/10/08 06:23:18;;;;;;;12.68;4.57;;;16.40;99.90;;;;;;6214373;23;20007;-74
2023/10/08 06:25:45;;;;;;;10.10;3.30;;;16.30;99.90;;;;;;6241725;23;20000;-74
2023/10/08 06:28:21;;;;;;;13.63;3.90;;;16.30;99.90;;;;;;6241580;23;20000;-74
2023/10/08 06:30:47;;;;;;;7.40;3.58;;;16.30;99.90;;;;;;6241789;23;20011;-74
2023/10/08 06:33:14;;;;;;;7.70;3.53;;;16.20;99.90;;;;;;6241175;23;20113;-74
2023/10/08 06:35:44;;;;;;;8.82;3.78;;;16.20;99.90;;;;;;6241259;23;20000;-75
2023/10/08 06:38:10;;;;;;;7.20;4.07;;;16.20;99.90;;;;;;6241287;23;20001;-74
2023/10/08 06:43:14;;;;;;;10.43;3.50;;;16.20;99.90;;;;;;6251542;23;20008;-75
2023/10/08 06:45:46;;;;;;;9.07;3.35;;;16.20;99.90;;;;;;6214519;23;20394;-74
2023/10/08 06:48:20;;;;;;;9.90;3.40;;;16.10;99.90;;;;;;6240601;23;20168;-74
2023/10/08 06:50:50;;;;;;;8.13;3.28;;;16.10;99.90;;;;;;6241645;23;20437;-74
2023/10/08 06:53:21;;;;;;;6.10;3.42;;;16.10;99.90;;;;;;6241120;23;20075;-75
2023/10/08 06:55:56;;;;;;;10.35;3.15;;;16.10;99.90;;;;;;6241413;23;20487;-74
2023/10/08 06:58:25;;;;;;;9.13;2.75;;;16.10;99.90;;;;;;6241616;23;20444;-74
2023/10/08 07:00:52;;;;;;;7.65;3.47;;;16.00;99.90;;;;;;6214419;23;20087;-74
2023/10/08 07:03:18;;;;;;;8.07;3.03;;;16.00;99.90;;;;;;6240718;23;20004;-74
2023/10/08 07:05:54;;;;;;;5.40;2.75;;;15.90;99.90;;;;;;6241437;23;20000;-73
2023/10/08 07:08:24;;;;;;;9.50;3.30;;;15.90;99.90;;;;;;6241445;23;20004;-74
2023/10/08 07:10:50;;;;;;;5.97;2.72;;;15.90;99.90;;;;;;6241491;23;20001;-73
2023/10/08 07:13:17;;;;;;;6.68;2.97;;;15.90;99.90;;;;;;6243519;23;20027;-73
2023/10/08 07:15:44;;;;;;;5.72;3.05;;;15.90;99.90;;;;;;6243519;23;20026;-73
2023/10/08 07:18:14;;;;;;;6.07;2.90;;;15.90;99.90;;;;;;6216093;23;20011;-74
2023/10/08 07:20:45;;;;;;;9.02;3.63;;;15.90;99.90;;;;;;6243076;23;20003;-73
2023/10/08 07:23:24;;;;;;;5.72;3.67;;;15.90;99.90;;;;;;6243249;23;20011;-73
2023/10/08 07:26:11;;;;;;;7.18;2.88;;;15.90;99.90;;;;;;6242890;23;20003;-73
2023/10/08 07:28:40;;;;;;;6.38;2.70;;;15.90;99.90;;;;;;6243741;23;20004;-73
2023/10/08 07:31:23;;;;;;;6.22;3.40;;;16.00;99.90;;;;;;6243297;23;20008;-73
2023/10/08 07:33:57;;;;;;;6.70;3.47;;;16.00;99.90;;;;;;6242702;23;20058;-73
2023/10/08 07:36:23;;;;;;;;;;;16.10;99.90;;;;;;6243472;23;20047;-73
2023/10/08 07:38:49;;;;;;;7.95;4.25;;;15.90;99.90;;;;;;6242715;23;19974;-73
2023/10/08 07:41:14;;;;;;;4.72;3.50;;;16.00;99.90;;;;;;6242661;23;20042;-73
2023/10/08 07:43:44;;;;;;;9.65;4.78;;;16.00;99.90;;;;;;6243006;23;20051;-73
2023/10/08 07:46:10;;;;;;;6.97;5.10;;;16.00;99.90;;;;;;6242263;23;20374;-73
2023/10/08 07:48:42;;;;;;;6.30;4.28;;;16.00;99.90;;;;;;6243273;23;20078;-73
2023/10/08 07:51:08;;;;;;;5.07;4.30;;;16.00;99.90;;;;;;6243152;23;20007;-73
2023/10/08 07:53:41;;;;;;;8.70;4.10;;;16.00;99.90;;;;;;6242865;23;20414;-73
2023/10/08 07:56:08;;;;;;;8.98;5.45;;;16.00;99.90;;;;;;6242741;23;20080;-73
2023/10/08 07:58:36;;;;;;;6.30;4.68;;;16.10;99.90;;;;;;6243355;23;20325;-73
2023/10/08 08:01:09;;;;;;;7.72;5.65;;;16.10;99.90;;;;;;6242114;23;20034;-73
2023/10/08 08:03:36;;;;;;;7.43;5.53;;;16.10;99.90;;;;;;6243119;23;20004;-73
2023/10/08 08:06:05;;;;;;;8.30;5.80;;;16.10;99.90;;;;;;6242458;23;20011;-73
2023/10/08 08:08:38;;;;;;;7.43;6.68;;;16.10;99.90;;;;;;6216486;23;20008;-73
2023/10/08 08:11:11;;;;;;;7.95;5.75;;;16.20;99.90;;;;;;6243061;23;20329;-73
2023/10/08 08:13:39;;;;;;;7.78;6.53;;;16.30;99.90;;;;;;6243315;23;20087;-72
2023/10/08 08:16:16;;;;;;;7.10;6.30;;;16.30;99.90;;;;;;6242320;23;20000;-72
2023/10/08 08:18:46;;;;;;;7.60;5.70;;;16.30;99.90;;;;;;6242560;23;20432;-72
2023/10/08 08:21:16;;;;;;;6.63;5.13;;;16.20;99.90;;;;;;6242553;23;20008;-72
2023/10/08 08:23:49;;;;;;;6.43;5.63;;;16.30;99.90;;;;;;6242519;23;20008;-73
2023/10/08 08:26:28;;;;;;;6.47;4.57;;;16.20;99.90;;;;;;6242612;23;20425;-72
2023/10/08 08:28:59;;;;;;;8.95;5.72;;;16.30;99.90;;;;;;6242599;23;20004;-73
2023/10/08 08:31:26;;;;;;;6.90;5.32;;;16.30;99.90;;;;;;6242069;23;20027;-73
2023/10/08 08:33:52;;;;;;;5.93;4.85;;;16.20;99.90;;;;;;6241343;23;20007;-73
2023/10/08 08:36:19;;;;;;;7.13;5.13;;;16.30;99.90;;;;;;6240051;23;20007;-73
2023/10/08 08:38:45;;;;;;;8.68;5.38;;;16.20;99.90;;;;;;6240836;23;19996;-73
2023/10/08 08:41:12;;;;;;;9.73;5.43;;;16.20;99.90;;;;;;6239411;23;20016;-73
2023/10/08 08:43:43;;;;;;;7.18;5.43;;;16.20;99.90;;;;;;6213473;23;20050;-73
2023/10/08 08:46:12;;;;;;;6.68;5.32;;;16.20;99.90;;;;;;6240572;23;20062;-73
2023/10/08 08:48:40;;;;;;;6.53;4.47;;;16.20;99.90;;;;;;6242152;23;20006;-73
2023/10/08 08:51:06;;;;;;;7.55;5.47;;;16.20;99.90;;;;;;6242794;23;20008;-73
2023/10/08 08:53:33;;;;;;;9.15;5.15;;;16.10;99.90;;;;;;6242423;23;20452;-73
2023/10/08 08:56:04;;;;;;;7.75;4.60;;;16.10;99.90;;;;;;6242450;23;20004;-73
2023/10/08 08:58:33;;;;;;;8.38;5.15;;;16.20;99.90;;;;;;6242237;23;20047;-73
2023/10/08 09:01:00;;;;;;;10.07;5.57;;;16.20;99.90;;;;;;6242246;23;20004;-73
2023/10/08 09:03:37;;;;;;;8.70;5.15;;;16.20;99.90;;;;;;6242209;23;20011;-73
2023/10/08 09:06:04;;;;;;;6.82;5.38;;;16.20;99.90;;;;;;6242467;23;20047;-73
2023/10/08 09:08:36;;;;;;;8.38;4.45;;;16.20;99.90;;;;;;6242369;23;20445;-73
2023/10/08 09:11:04;;;;;;;10.77;5.35;;;16.20;99.90;;;;;;6241599;23;20423;-73
2023/10/08 09:13:31;;;;;;;7.38;4.60;;;16.30;99.90;;;;;;6214930;23;20172;-73
2023/10/08 09:16:03;;;;;;;7.90;3.95;;;16.30;99.90;;;;;;6242150;23;20430;-73
2023/10/08 09:18:32;;;;;;;7.03;3.53;;;16.40;99.90;;;;;;6242655;23;20495;-73
2023/10/08 09:21:10;;;;;;;4.55;3.03;;;16.40;99.90;;;;;;6242055;23;20079;-74
2023/10/08 09:23:43;;;;;;;5.63;2.90;;;16.60;99.90;;;;;;6242329;23;20007;-74
2023/10/08 09:26:14;;;;;;;3.92;2.58;;;16.60;99.90;;;;;;6242128;23;20004;-73
2023/10/08 09:28:41;;;;;;;5.47;2.80;;;16.70;99.90;;;;;;6214531;23;20011;-73
2023/10/08 09:31:11;;;;;;;6.93;2.92;;;16.80;99.90;;;;;;6241977;23;20000;-74
2023/10/08 09:33:37;;;;;;;5.40;2.25;;;16.90;99.90;;;;;;6242382;23;20311;-73
2023/10/08 09:36:06;;;;;;;6.05;2.38;;;17.00;99.90;;;;;;6242269;23;20023;-74
2023/10/08 09:38:33;;;;;;;5.50;2.53;;;16.90;99.90;;;;;;6241912;23;19996;-73
2023/10/08 09:41:02;;;;;;;7.18;2.08;;;16.90;99.90;;;;;;6241606;23;20437;-73
2023/10/08 09:43:28;;;;;;;6.15;2.22;;;17.00;99.90;;;;;;6241516;23;20019;-73
2023/10/08 09:46:01;;;;;;;3.13;1.63;;;16.90;99.90;;;;;;6241435;23;20004;-73
2023/10/08 09:48:30;;;;;;;7.03;2.10;;;16.90;99.90;;;;;;6242008;23;20010;-74
2023/10/08 09:50:58;;;;;;;3.70;1.63;;;16.90;99.90;;;;;;6241584;23;20030;-74
2023/10/08 09:53:36;;;;;;;4.90;1.40;;;17.00;99.90;;;;;;6214942;23;20012;-74
2023/10/08 09:56:14;;;;;;;2.95;1.65;;;17.00;99.90;;;;;;6241465;23;20079;-73
2023/10/08 09:58:40;;;;;;;4.45;1.83;;;17.10;99.90;;;;;;6241305;23;20067;-73
2023/10/08 10:01:06;;;;;;;3.30;1.90;;;17.20;99.90;;;;;;6240407;23;19997;-73
2023/10/08 10:03:36;;;;;;;4.38;1.40;;;17.20;99.90;;;;;;6241637;23;20310;-73
2023/10/08 10:06:01;;;;;;;3.25;1.27;;;17.20;99.90;;;;;;6241567;23;20015;-74
2023/10/08 10:08:35;;;;;;;3.60;1.83;;;17.10;99.90;;;;;;6242415;23;20036;-73
2023/10/08 10:11:01;;;;;;;3.45;1.15;;;17.20;99.90;;;;;;6214333;23;20054;-73
2023/10/08 10:13:29;;;;;;;5.85;2.35;;;17.20;99.90;;;;;;6242042;23;20091;-74
2023/10/08 10:15:54;;;;;;;3.45;1.30;;;17.20;99.90;;;;;;6240981;23;20003;-73
2023/10/08 10:18:26;;;;;;;2.28;1.23;;;17.20;99.90;;;;;;6241383;23;20000;-73
2023/10/08 10:21:00;;;;;;;2.47;1.58;;;17.20;99.90;;;;;;6241820;23;20179;-74
2023/10/08 10:23:46;;;;;;;3.97;1.25;;;17.20;99.90;;;;;;6241660;23;20000;-73
2023/10/08 10:26:31;;;;;;;3.72;1.33;;;17.30;99.90;;;;;;6241081;23;20004;-73
2023/10/08 10:29:15;;;;;;;5.35;1.40;;;17.30;99.90;;;;;;6241716;23;20165;-74
2023/10/08 10:31:52;;;;;;;6.60;1.42;;;17.30;99.90;;;;;;6241558;23;20007;-74
2023/10/08 10:34:20;;;;;;;2.70;1.38;;;17.30;99.90;;;;;;6241407;23;20083;-73
2023/10/08 10:36:55;;;;;;;3.70;1.55;;;17.40;99.90;;;;;;6241762;23;20023;-74
2023/10/08 10:39:27;;;;;;;4.70;1.95;;;17.50;99.90;;;;;;6241596;23;20047;-73
2023/10/08 10:42:00;;;;;;;5.90;1.45;;;17.50;99.90;;;;;;6240760;23;20020;-73
2023/10/08 10:44:29;;;;;;;2.92;1.40;;;17.50;99.90;;;;;;6241642;23;20007;-73
2023/10/08 10:49:49;;;;;;;2.95;1.48;;;17.70;99.90;;;;;;6240939;23;20073;-73
2023/10/08 10:52:26;;;;;;;3.35;1.35;;;17.80;99.90;;;;;;6240842;23;20383;-73
2023/10/08 10:54:58;;;;;;;3.22;1.55;;;18.00;99.90;;;;;;6240949;23;20338;-73
2023/10/08 10:57:34;;;;;;;1.77;1.08;;;18.00;99.80;;;;;;6241459;23;20000;-74
2023/10/08 11:00:18;;;;;;;3.33;1.73;;;18.10;99.80;;;;;;6241511;23;19996;-73
2023/10/08 11:02:48;;;;;;;3.13;1.15;;;18.10;99.60;;;;;;6241330;23;20027;-73
2023/10/08 11:05:19;;;;;;;4.28;2.13;;;18.10;99.30;;;;;;6214092;23;20006;-73
2023/10/08 11:07:48;;;;;;;6.07;1.80;;;18.20;99.30;;;;;;6241504;23;20071;-75
2023/10/08 11:10:15;;;;;;;3.20;1.83;;;18.10;99.30;;;;;;6240046;23;20071;-73
2023/10/08 11:12:52;;;;;;;4.03;1.73;;;18.20;99.30;;;;;;6240842;23;20005;-73
2023/10/08 11:15:18;;;;;;;4.18;1.35;;;18.20;99.30;;;;;;6241223;23;20003;-74
2023/10/08 11:17:47;;;;;;;2.22;1.48;;;18.30;99.20;;;;;;6241004;23;20001;-74
2023/10/08 11:20:26;;;;;;;3.65;1.90;;;18.30;99.00;;;;;;6213904;23;20091;-74
2023/10/08 11:22:53;;;;;;;3.95;1.70;;;18.30;99.00;;;;;;6241126;23;20004;-74
2023/10/08 11:25:30;;;;;;;3.05;1.70;;;18.30;98.90;;;;;;6240419;23;20004;-74
2023/10/08 11:28:01;;;;;;;3.72;1.40;;;18.20;98.80;;;;;;6241120;23;20425;-74
2023/10/08 11:30:31;;;;;;;3.70;1.50;;;18.20;98.80;;;;;;6241590;23;20004;-74
2023/10/08 11:33:00;;;;;;;3.40;2.03;;;18.20;98.80;;;;;;6241026;23;20012;-74
2023/10/08 11:35:27;;;;;;;2.33;1.27;;;18.20;98.80;;;;;;6213765;23;20004;-73
2023/10/08 11:38:00;;;;;;;3.95;2.53;;;18.20;98.90;;;;;;6240364;23;20004;-74
2023/10/08 11:40:48;;;;;;;3.58;1.40;;;18.20;98.80;;;;;;6213886;23;20022;-73
2023/10/08 11:43:15;;;;;;;3.53;1.50;;;18.20;98.90;;;;;;6213940;23;20306;-73
2023/10/08 11:45:48;;;;;;;4.00;1.30;;;18.10;98.90;;;;;;6241346;23;19996;-74
2023/10/08 11:48:17;;;;;;;1.60;1.30;;;18.10;98.90;;;;;;6241136;23;20004;-74
2023/10/08 11:50:43;;;;;;;3.08;1.25;;;18.20;99.10;;;;;;6213750;23;20009;-74
2023/10/08 11:53:11;;;;;;;4.50;1.45;;;18.30;99.10;;;;;;6213405;23;20054;-74
2023/10/08 11:55:38;;;;;;;3.65;1.27;;;18.40;99.00;;;;;;6241327;23;20457;-74
2023/10/08 11:58:12;;;;;;;2.42;0.93;;;18.50;98.80;;;;;;6242455;23;20050;-73
2023/10/08 12:00:44;;;;;;;4.60;1.85;;;18.50;98.70;;;;;;6243425;23;20008;-74
2023/10/08 12:03:17;;;;;;;4.13;1.83;;;18.50;98.70;;;;;;6243136;23;20433;-74
2023/10/08 12:05:47;;;;;;;;;;;18.40;98.70;;;;;;6243271;23;20028;-74
2023/10/08 12:08:16;;;;;;;3.20;1.00;;;18.30;98.80;;;;;;6242501;23;19906;-73
2023/10/08 12:10:46;;;;;;;2.75;1.25;;;18.30;98.90;;;;;;6215934;23;20011;-73
2023/10/08 12:13:12;;;;;;;3.72;1.48;;;18.20;99.00;;;;;;6242478;23;20346;-73
2023/10/08 12:15:41;;;;;;;2.60;1.15;;;18.10;99.00;;;;;;6215765;23;20091;-74
2023/10/08 12:18:25;;;;;;;2.67;1.13;;;18.20;99.10;;;;;;6242854;23;20004;-74
2023/10/08 12:20:52;;;;;;;2.55;1.88;;;18.20;99.30;;;;;;6242620;23;20051;-74
2023/10/08 12:23:29;;;;;;;3.85;1.20;;;18.20;99.10;;;;;;6241867;23;20004;-74
2023/10/08 12:25:55;;;;;;;3.83;1.80;;;18.30;99.20;;;;;;6242139;23;20079;-75
2023/10/08 12:28:24;;;;;;;3.90;1.33;;;18.30;99.20;;;;;;6242378;23;20023;-74
2023/10/08 12:30:53;;;;;;;4.63;1.40;;;18.20;99.30;;;;;;6215076;23;20508;-75
2023/10/08 12:33:20;;;;;;;3.33;1.50;;;18.20;99.50;;;;;;6215038;23;20035;-75
2023/10/08 12:35:48;;;;;;;3.65;1.45;;;18.30;99.40;;;;;;6242453;23;20107;-75
2023/10/08 12:38:14;;;;;;;2.63;1.20;;;18.30;99.40;;;;;;6242513;23;20055;-75
2023/10/08 12:40:52;;;;;;;4.05;1.75;;;18.30;99.50;;;;;;6209984;23;20016;-74
2023/10/08 12:43:19;;;;;;;2.63;1.70;;;18.40;99.40;;;;;;6211979;23;20035;-75
2023/10/08 12:45:56;;;;;;;3.65;1.52;;;18.50;99.50;;;;;;6211764;23;20001;-75
2023/10/08 12:48:27;;;;;;;4.55;1.70;;;18.50;99.50;;;;;;6212332;23;20062;-75
2023/10/08 12:51:00;;;;;;;2.58;1.95;;;18.50;99.50;;;;;;6211515;23;20068;-75
2023/10/08 12:53:33;;;;;;;3.15;2.05;;;18.50;99.50;;;;;;6212206;23;20005;-75
2023/10/08 12:56:05;;;;;;;3.90;1.95;;;18.60;99.60;;;;;;6212180;23;20005;-75
2023/10/08 12:58:34;;;;;;;2.72;2.22;;;18.70;99.60;;;;;;6212156;23;19996;-74
2023/10/08 13:01:03;;;;;;;4.35;2.05;;;18.70;99.60;;;;;;6212158;23;19996;-75
2023/10/08 13:03:32;;;;;;;1.88;1.55;;;18.80;99.70;;;;;;6211948;23;20031;-74
2023/10/08 13:06:05;;;;;;;2.55;1.52;;;18.80;99.70;;;;;;6209747;23;20012;-74
2023/10/08 13:08:33;;;;;;;2.92;1.55;;;18.80;99.50;;;;;;6211643;23;20008;-75
2023/10/08 13:11:03;;;;;;;3.30;2.28;;;18.80;99.50;;;;;;6211585;23;20351;-76
2023/10/08 13:13:29;;;;;;;2.83;2.15;;;18.80;99.50;;;;;;6211993;23;20449;-76
2023/10/08 13:15:57;;;;;;;3.53;2.85;;;18.80;99.50;;;;;;6211183;23;20067;-76
2023/10/08 13:18:25;;;;;;;5.95;3.92;;;18.80;99.60;;;;;;6211779;23;20068;-74
2023/10/08 13:20:54;;;;;;;4.47;3.13;;;18.80;99.50;;;;;;6211345;23;20008;-74
2023/10/08 13:23:20;;;;;;;3.53;2.85;;;18.70;99.60;;;;;;6211704;23;20001;-74
2023/10/08 13:25:53;;;;;;;4.80;3.80;;;18.60;99.80;;;;;;6211837;23;20076;-74
2023/10/08 13:28:23;;;;;;;5.70;3.60;;;18.50;99.80;;;;;;6211936;23;20032;-74
2023/10/08 13:30:54;;;;;;;5.60;3.78;;;18.50;99.90;;;;;;6212044;23;20476;-74
2023/10/08 13:33:23;;;;;;;7.57;3.67;;;18.40;99.90;;;;;;6211504;23;20005;-74
2023/10/08 13:35:49;;;;;;;4.47;3.00;;;18.40;99.90;;;;;;6211337;23;20024;-75
2023/10/08 13:38:19;;;;;;;3.67;3.28;;;18.40;99.90;;;;;;6211512;23;20004;-74
2023/10/08 13:41:02;;;;;;;2.80;2.28;;;18.40;99.90;;;;;;6220368;23;20016;-74
2023/10/08 13:43:33;;;;;;;3.20;1.80;;;18.40;99.90;;;;;;6239935;23;20368;-74
2023/10/08 13:46:12;;;;;;;4.55;2.65;;;18.50;99.90;;;;;;6240829;23;20007;-74
2023/10/08 13:48:39;;;;;;;2.80;2.10;;;18.60;99.90;;;;;;6240573;23;20054;-74
2023/10/08 13:51:10;;;;;;;2.78;1.70;;;18.70;99.90;;;;;;6240828;23;19996;-75
2023/10/08 13:53:39;;;;;;;2.97;1.70;;;18.70;99.90;;;;;;6241588;23;20011;-74
2023/10/08 13:56:04;;;;;;;2.50;1.60;;;18.70;99.90;;;;;;6215170;23;20007;-74
2023/10/08 13:58:34;;;;;;;2.80;1.70;;;18.70;99.90;;;;;;6242234;23;20000;-74
2023/10/08 14:01:00;;;;;;;2.90;1.98;;;18.80;99.90;;;;;;6241936;23;20079;-74
2023/10/08 14:03:31;;;;;;;3.40;1.40;;;18.90;99.90;;;;;;6241271;23;20050;-74
2023/10/08 14:06:04;;;;;;;2.95;2.00;;;18.90;99.90;;;;;;6241435;23;20063;-74
2023/10/08 14:08:30;;;;;;;4.78;1.77;;;18.80;99.90;;;;;;6241664;23;20000;-75
2023/10/08 14:11:05;;;;;;;3.67;1.95;;;18.80;99.90;;;;;;6241433;23;19996;-74
2023/10/08 14:13:32;;;;;;;4.15;1.90;;;18.70;99.90;;;;;;6241814;23;20005;-75
2023/10/08 14:16:08;;;;;;;3.38;1.77;;;18.70;99.90;;;;;;6241730;23;20019;-74
2023/10/08 14:18:48;;;;;;;3.65;2.45;;;18.60;99.90;;;;;;6241282;23;20042;-75
2023/10/08 14:21:15;;;;;;;2.53;1.70;;;18.60;99.90;;;;;;6240713;23;20000;-74